createdAt,value
2023-03-28T00:02:36.440Z,6.80
2023-03-28T00:05:24.228Z,7.47
2023-03-28T00:08:12.227Z,12.27
2023-03-28T00:11:21.212Z,8.40
2023-03-28T00:14:08.690Z,5.97
2023-03-28T00:16:57.433Z,8.53
2023-03-28T00:19:47.005Z,9.03
2023-03-28T00:22:34.433Z,6.17
2023-03-28T00:25:21.858Z,7.90
2023-03-28T00:28:09.828Z,7.83
2023-03-28T00:31:05.151Z,10.80
2023-03-28T00:33:53.358Z,5.77
2023-03-28T00:36:41.748Z,11.37
2023-03-28T00:39:31.564Z,7.57
2023-03-28T00:42:22.469Z,7.53
2023-03-28T00:45:12.059Z,5.03
2023-03-28T00:48:14.771Z,6.97
2023-03-28T00:51:03.755Z,7.40
2023-03-28T00:53:52.532Z,7.00
2023-03-28T00:56:44.964Z,7.47
2023-03-28T00:59:36.407Z,8.40
2023-03-28T01:02:23.847Z,5.47
2023-03-28T01:05:13.681Z,10.63
2023-03-28T01:08:14.968Z,11.33
2023-03-28T01:10:43.693Z,14.40
2023-03-28T01:13:13.318Z,8.30
2023-03-28T01:15:41.946Z,6.93
2023-03-28T01:18:13.507Z,7.93
2023-03-28T01:21:13.713Z,6.47
2023-03-28T01:24:23.231Z,9.57
2023-03-28T01:27:26.915Z,6.67
2023-03-28T01:30:15.418Z,10.47
2023-03-28T01:33:50.765Z,11.00
2023-03-28T01:36:36.516Z,7.10
2023-03-28T01:39:36.343Z,9.53
2023-03-28T01:42:31.273Z,8.53
2023-03-28T01:45:22.203Z,10.23
2023-03-28T01:48:44.121Z,6.77
2023-03-28T01:51:32.158Z,7.77
2023-03-28T01:54:26.231Z,6.50
2023-03-28T01:57:31.612Z,9.27
2023-03-28T02:00:24.457Z,10.00
2023-03-28T02:03:00.837Z,7.23
2023-03-28T02:05:32.267Z,11.47
2023-03-28T02:08:02.904Z,11.47
2023-03-28T02:10:32.953Z,9.47
2023-03-28T02:13:07.750Z,9.83
2023-03-28T02:15:34.948Z,7.77
2023-03-28T02:18:09.805Z,8.27
2023-03-28T02:20:38.266Z,5.73
2023-03-28T02:23:15.794Z,8.83
2023-03-28T02:25:43.105Z,8.17
2023-03-28T02:28:12.760Z,7.23
2023-03-28T02:30:40.317Z,9.73
2023-03-28T02:33:32.418Z,7.13
2023-03-28T02:36:36.895Z,9.23
2023-03-28T02:39:34.427Z,5.60
2023-03-28T02:42:28.112Z,6.10
2023-03-28T02:45:50.759Z,7.67
2023-03-28T02:48:33.801Z,9.87
2023-03-28T02:51:25.756Z,5.70
2023-03-28T02:54:34.581Z,10.87
2023-03-28T02:57:10.532Z,8.03
2023-03-28T03:00:13.717Z,11.00
2023-03-28T03:02:44.338Z,10.67
2023-03-28T03:05:12.009Z,8.30
2023-03-28T03:07:39.331Z,6.87
2023-03-28T03:10:10.759Z,10.33
2023-03-28T03:12:38.281Z,9.17
2023-03-28T03:15:07.280Z,7.10
2023-03-28T03:17:34.409Z,7.63
2023-03-28T03:20:02.519Z,8.33
2023-03-28T03:22:29.538Z,8.70
2023-03-28T03:24:57.660Z,8.77
2023-03-28T03:27:24.707Z,13.03
2023-03-28T03:29:52.002Z,10.37
2023-03-28T03:32:19.104Z,11.30
2023-03-28T03:34:46.142Z,8.63
2023-03-28T03:37:14.754Z,9.73
2023-03-28T03:39:42.094Z,9.73
2023-03-28T03:42:09.208Z,11.13
2023-03-28T03:44:36.423Z,10.40
2023-03-28T03:47:04.410Z,9.37
2023-03-28T03:49:31.653Z,9.83
2023-03-28T03:51:58.819Z,9.73
2023-03-28T03:54:26.321Z,10.47
2023-03-28T03:56:53.445Z,10.13
2023-03-28T03:59:20.900Z,18.63
2023-03-28T04:01:47.957Z,12.67
2023-03-28T04:04:15.293Z,15.33
2023-03-28T04:06:42.391Z,12.20
2023-03-28T04:09:09.483Z,14.07
2023-03-28T04:11:37.704Z,9.97
2023-03-28T04:14:05.003Z,14.67
2023-03-28T04:16:40.409Z,13.60
2023-03-28T04:19:10.848Z,12.93
2023-03-28T04:21:42.804Z,10.50
2023-03-28T04:24:09.960Z,13.53
2023-03-28T04:26:38.053Z,12.30
2023-03-28T04:29:05.966Z,11.07
2023-03-28T04:31:36.253Z,12.80
2023-03-28T04:34:05.897Z,13.80
2023-03-28T04:36:33.661Z,15.70
2023-03-28T04:39:02.858Z,13.83
2023-03-28T04:41:33.219Z,15.60
2023-03-28T04:44:01.248Z,12.67
2023-03-28T04:46:31.646Z,14.87
2023-03-28T04:48:58.750Z,13.50
2023-03-28T04:51:28.575Z,13.33
2023-03-28T04:53:55.668Z,14.80
2023-03-28T04:56:23.438Z,15.10
2023-03-28T04:58:50.464Z,12.80
2023-03-28T05:01:17.934Z,13.60
2023-03-28T05:03:45.194Z,15.63
2023-03-28T05:06:12.323Z,16.70
2023-03-28T05:08:39.388Z,17.67
2023-03-28T05:11:06.917Z,14.70
2023-03-28T05:13:34.873Z,14.83
2023-03-28T05:16:02.002Z,20.87
2023-03-28T05:18:29.054Z,16.70
2023-03-28T05:20:56.124Z,13.67
2023-03-28T05:23:23.213Z,20.30
2023-03-28T05:25:54.597Z,16.67
2023-03-28T05:28:25.282Z,16.57
2023-03-28T05:30:52.483Z,14.63
2023-03-28T05:33:19.594Z,15.00
2023-03-28T05:35:47.122Z,18.03
2023-03-28T05:38:14.595Z,17.87
2023-03-28T05:40:41.554Z,19.13
2023-03-28T05:43:08.636Z,14.83
2023-03-28T05:45:35.836Z,16.27
2023-03-28T05:48:03.613Z,22.40
2023-03-28T05:50:33.423Z,17.20
2023-03-28T05:53:00.929Z,14.50
2023-03-28T05:55:28.295Z,14.30
2023-03-28T05:57:56.020Z,13.73
2023-03-28T06:00:23.618Z,18.53
2023-03-28T06:02:51.894Z,15.23
2023-03-28T06:05:19.679Z,15.63
2023-03-28T06:07:46.966Z,19.53
2023-03-28T06:10:15.855Z,18.10
2023-03-28T06:12:43.156Z,16.10
2023-03-28T06:15:11.118Z,14.03
2023-03-28T06:17:38.686Z,12.57
2023-03-28T06:20:07.337Z,13.10
2023-03-28T06:22:34.565Z,12.40
2023-03-28T06:25:01.642Z,10.97
2023-03-28T06:27:29.739Z,17.10
2023-03-28T06:29:56.927Z,14.10
2023-03-28T06:32:24.023Z,15.37
2023-03-28T06:34:51.416Z,13.53
2023-03-28T06:37:18.504Z,14.27
2023-03-28T06:39:45.662Z,14.43
2023-03-28T06:42:12.749Z,18.17
2023-03-28T06:44:39.925Z,15.67
2023-03-28T06:47:06.970Z,13.83
2023-03-28T06:49:34.128Z,15.10
2023-03-28T06:52:01.349Z,14.00
2023-03-28T06:54:28.551Z,13.33
2023-03-28T06:56:55.766Z,12.40
2023-03-28T06:59:22.966Z,13.20
2023-03-28T07:01:50.321Z,14.10
2023-03-28T07:04:17.423Z,17.53
2023-03-28T07:06:44.576Z,17.17
2023-03-28T07:09:11.639Z,15.07
2023-03-28T07:11:38.844Z,12.27
2023-03-28T07:14:06.029Z,14.47
2023-03-28T07:16:33.514Z,12.53
2023-03-28T07:19:00.615Z,14.70
2023-03-28T07:21:27.938Z,13.07
2023-03-28T07:23:55.092Z,13.97
2023-03-28T07:26:24.710Z,13.77
2023-03-28T07:28:55.233Z,15.17
2023-03-28T07:31:22.602Z,12.00
2023-03-28T07:33:50.344Z,13.47
2023-03-28T07:36:21.747Z,17.70
2023-03-28T07:38:49.577Z,14.33
2023-03-28T07:41:17.506Z,12.93
2023-03-28T07:43:45.265Z,13.50
2023-03-28T07:46:15.024Z,15.97
2023-03-28T07:48:43.132Z,12.37
2023-03-28T07:51:11.381Z,13.63
2023-03-28T07:53:39.080Z,9.20
2023-03-28T07:56:12.300Z,10.93
2023-03-28T07:58:41.454Z,16.00
2023-03-28T08:01:12.771Z,9.03
2023-03-28T08:03:42.258Z,15.13
2023-03-28T08:06:24.371Z,11.87
2023-03-28T08:08:58.183Z,7.53
2023-03-28T08:11:27.353Z,13.93
2023-03-28T08:13:54.483Z,5.80
2023-03-28T08:16:22.353Z,6.97
2023-03-28T08:18:57.011Z,9.00
2023-03-28T08:21:35.305Z,6.63
2023-03-28T08:24:06.880Z,7.83
2023-03-28T08:26:39.145Z,11.47
2023-03-28T08:29:06.703Z,7.70
2023-03-28T08:31:33.926Z,7.30
2023-03-28T08:34:01.210Z,10.67
2023-03-28T08:36:28.647Z,9.47
2023-03-28T08:39:00.711Z,12.43
2023-03-28T08:41:47.195Z,8.50
2023-03-28T08:44:42.744Z,5.70
2023-03-28T08:47:26.311Z,7.00
2023-03-28T08:50:02.197Z,10.43
2023-03-28T08:52:30.178Z,7.38
2023-03-28T08:55:11.595Z,7.87
2023-03-28T08:57:42.458Z,8.35
2023-03-28T09:00:39.347Z,9.73
2023-03-28T09:03:14.594Z,8.90
2023-03-28T09:06:06.656Z,8.95
2023-03-28T09:08:45.369Z,9.15
2023-03-28T09:11:49.820Z,9.55
2023-03-28T09:14:41.908Z,5.05
2023-03-28T09:17:25.850Z,7.10
2023-03-28T09:20:12.113Z,8.68
2023-03-28T09:23:06.292Z,8.23
2023-03-28T09:25:54.927Z,8.38
2023-03-28T09:28:59.532Z,5.25
2023-03-28T09:31:44.213Z,6.32
2023-03-28T09:34:20.986Z,5.88
2023-03-28T09:36:54.008Z,6.57
2023-03-28T09:39:45.693Z,9.95
2023-03-28T09:42:45.032Z,9.23
2023-03-28T09:45:36.213Z,6.82
2023-03-28T09:48:08.918Z,5.70
2023-03-28T09:50:36.328Z,4.68
2023-03-28T09:53:03.813Z,6.20
2023-03-28T09:55:31.846Z,4.13
2023-03-28T09:58:03.117Z,6.30
2023-03-28T10:00:47.999Z,4.72
2023-03-28T10:03:29.166Z,3.28
2023-03-28T10:06:01.328Z,4.72
2023-03-28T10:08:40.794Z,8.45
2023-03-28T10:11:17.334Z,5.03
2023-03-28T10:13:51.682Z,5.15
2023-03-28T10:16:32.309Z,4.85
2023-03-28T10:18:59.690Z,5.93
2023-03-28T10:21:31.527Z,4.20
2023-03-28T10:24:09.757Z,3.75
2023-03-28T10:26:37.120Z,5.82
2023-03-28T10:29:08.693Z,5.95
2023-03-28T10:31:37.861Z,3.60
2023-03-28T10:34:05.003Z,3.78
2023-03-28T10:36:43.639Z,4.55
2023-03-28T10:39:35.741Z,3.30
2023-03-28T10:42:04.063Z,6.63
2023-03-28T10:44:36.807Z,6.95
2023-03-28T10:47:14.968Z,5.35
2023-03-28T10:49:55.257Z,5.45
2023-03-28T10:52:54.435Z,8.48
2023-03-28T10:55:36.316Z,6.68
2023-03-28T10:58:31.364Z,5.07
2023-03-28T11:01:07.699Z,10.80
2023-03-28T11:04:02.621Z,7.28
2023-03-28T11:06:56.813Z,5.38
2023-03-28T11:09:42.716Z,5.65
2023-03-28T11:12:51.143Z,3.50
2023-03-28T11:15:47.185Z,5.63
2023-03-28T11:18:42.752Z,7.18
2023-03-28T11:21:31.744Z,2.55
2023-03-28T11:24:23.393Z,3.88
2023-03-28T11:27:22.247Z,4.53
2023-03-28T11:30:06.935Z,8.38
2023-03-28T11:32:58.784Z,4.38
2023-03-28T11:36:07.937Z,6.53
2023-03-28T11:38:42.719Z,4.13
2023-03-28T11:41:21.969Z,5.15
2023-03-28T11:44:13.812Z,4.75
2023-03-28T11:46:51.097Z,5.55
2023-03-28T11:49:33.588Z,3.33
2023-03-28T11:52:20.425Z,4.60
2023-03-28T11:55:14.544Z,4.57
2023-03-28T11:58:09.115Z,4.97
2023-03-28T12:00:47.310Z,3.50
2023-03-28T12:03:37.417Z,4.60
2023-03-28T12:06:33.695Z,3.97
2023-03-28T12:09:16.376Z,5.72
2023-03-28T12:12:04.955Z,4.53
2023-03-28T12:14:43.452Z,5.10
2023-03-28T12:17:36.565Z,3.63
2023-03-28T12:20:13.543Z,6.20
2023-03-28T12:22:45.864Z,4.22
2023-03-28T12:25:31.309Z,2.83
2023-03-28T12:28:37.394Z,6.82
2023-03-28T12:31:18.130Z,4.82
2023-03-28T12:34:35.129Z,3.38
2023-03-28T12:37:25.065Z,4.35
2023-03-28T12:40:03.049Z,2.47
2023-03-28T12:42:30.610Z,3.95
2023-03-28T12:45:06.808Z,8.20
2023-03-28T12:47:44.460Z,3.08
2023-03-28T12:50:56.357Z,5.85
2023-03-28T12:53:24.514Z,5.20
2023-03-28T12:55:52.764Z,7.07
2023-03-28T12:58:26.550Z,4.53
2023-03-28T13:01:50.613Z,6.50
2023-03-28T13:04:29.909Z,5.40
2023-03-28T13:07:44.709Z,4.43
2023-03-28T13:10:38.220Z,4.95
2023-03-28T13:14:03.868Z,4.93
2023-03-28T13:16:52.747Z,4.00
2023-03-28T13:19:20.771Z,2.35
2023-03-28T13:22:00.016Z,4.97
2023-03-28T13:24:26.907Z,4.03
2023-03-28T13:26:58.433Z,2.58
2023-03-28T13:29:45.812Z,2.97
2023-03-28T13:32:23.330Z,4.70
2023-03-28T13:34:56.775Z,4.40
2023-03-28T13:37:43.317Z,4.75
2023-03-28T13:40:51.512Z,3.95
2023-03-28T13:43:46.624Z,3.08
2023-03-28T13:46:24.390Z,3.70
2023-03-28T13:48:54.468Z,2.13
2023-03-28T13:51:30.884Z,4.18
2023-03-28T13:53:58.182Z,7.28
2023-03-28T13:56:35.298Z,4.22
2023-03-28T13:59:13.252Z,4.10
2023-03-28T14:02:14.303Z,4.82
2023-03-28T14:04:49.522Z,4.07
2023-03-28T14:07:22.819Z,4.00
2023-03-28T14:09:51.206Z,6.82
2023-03-28T14:12:20.034Z,5.78
2023-03-28T14:14:54.485Z,3.47
2023-03-28T14:17:32.881Z,3.20
2023-03-28T14:20:05.645Z,4.60
2023-03-28T14:22:45.727Z,3.75
2023-03-28T14:25:16.659Z,6.03
2023-03-28T14:27:53.542Z,2.05
2023-03-28T14:30:37.540Z,3.65
2023-03-28T14:33:20.276Z,3.17
2023-03-28T14:36:05.963Z,2.03
2023-03-28T14:38:38.569Z,3.60
2023-03-28T14:41:21.554Z,3.58
2023-03-28T14:43:55.903Z,2.88
2023-03-28T14:46:27.559Z,2.17
2023-03-28T14:48:59.036Z,5.60
2023-03-28T14:51:26.615Z,3.88
2023-03-28T14:53:53.996Z,4.63
2023-03-28T14:56:27.986Z,3.67
2023-03-28T14:59:01.247Z,2.88
2023-03-28T15:01:32.106Z,5.25
2023-03-28T15:04:06.096Z,5.65
2023-03-28T15:06:35.385Z,3.22
2023-03-28T15:09:25.631Z,4.00
2023-03-28T15:11:53.191Z,5.03
2023-03-28T15:14:45.235Z,2.78
2023-03-28T15:17:20.085Z,5.03
2023-03-28T15:19:52.981Z,3.60
2023-03-28T15:22:27.151Z,4.88
2023-03-28T15:24:57.503Z,5.07
2023-03-28T15:27:33.642Z,3.13
2023-03-28T15:30:15.694Z,3.65
2023-03-28T15:32:43.532Z,2.10
2023-03-28T15:35:43.579Z,5.53
2023-03-28T15:38:13.647Z,4.30
2023-03-28T15:41:07.327Z,6.70
2023-03-28T15:44:00.965Z,4.60
2023-03-28T15:46:33.298Z,1.73
2023-03-28T15:49:04.041Z,4.20
2023-03-28T15:51:32.262Z,2.95
2023-03-28T15:54:00.395Z,2.88
2023-03-28T15:56:32.023Z,4.28
2023-03-28T15:59:10.677Z,3.35
2023-03-28T16:01:38.079Z,3.08
2023-03-28T16:04:16.061Z,3.90
2023-03-28T16:06:45.655Z,4.43
2023-03-28T16:09:17.792Z,2.63
2023-03-28T16:11:49.392Z,4.88
2023-03-28T16:14:21.345Z,3.72
2023-03-28T16:16:56.900Z,3.28
2023-03-28T16:19:28.345Z,3.10
2023-03-28T16:22:00.456Z,3.75
2023-03-28T16:24:28.290Z,5.45
2023-03-28T16:26:55.580Z,3.83
2023-03-28T16:29:23.367Z,3.47
2023-03-28T16:31:55.490Z,5.32
2023-03-28T16:34:23.774Z,3.47
2023-03-28T16:36:56.084Z,5.13
2023-03-28T16:39:23.749Z,3.10
2023-03-28T16:41:51.272Z,5.47
2023-03-28T16:44:18.723Z,4.38
2023-03-28T16:46:45.997Z,3.00
2023-03-28T16:49:13.216Z,2.50
2023-03-28T16:51:40.687Z,2.13
2023-03-28T16:54:10.110Z,2.85
2023-03-28T16:56:38.041Z,1.50
2023-03-28T16:59:07.765Z,4.73
2023-03-28T17:01:35.038Z,2.90
2023-03-28T17:04:03.134Z,4.07
2023-03-28T17:06:30.922Z,1.40
2023-03-28T17:08:58.908Z,2.30
2023-03-28T17:11:27.087Z,3.63
2023-03-28T17:13:55.377Z,3.30
2023-03-28T17:16:23.974Z,1.47
2023-03-28T17:18:51.319Z,2.47
2023-03-28T17:21:18.809Z,2.70
2023-03-28T17:23:48.795Z,4.23
2023-03-28T17:26:17.207Z,1.47
2023-03-28T17:28:44.804Z,3.33
2023-03-28T17:31:19.606Z,2.20
2023-03-28T17:33:48.376Z,1.97
2023-03-28T17:36:25.978Z,2.50
2023-03-28T17:38:55.944Z,3.80
2023-03-28T17:41:24.709Z,3.23
2023-03-28T17:43:54.057Z,3.33
2023-03-28T17:46:21.879Z,7.63
2023-03-28T17:48:49.598Z,5.67
2023-03-28T17:51:17.492Z,3.80
2023-03-28T17:53:47.099Z,4.47
2023-03-28T17:56:16.348Z,2.43
2023-03-28T17:58:44.909Z,3.03
2023-03-28T18:01:15.288Z,4.73
2023-03-28T18:03:44.377Z,4.10
2023-03-28T18:06:13.094Z,4.50
2023-03-28T18:08:41.213Z,2.63
2023-03-28T18:11:14.145Z,4.27
2023-03-28T18:13:41.622Z,4.13
2023-03-28T18:16:13.420Z,3.23
2023-03-28T18:18:41.627Z,3.23
2023-03-28T18:21:11.248Z,3.73
2023-03-28T18:23:38.703Z,7.17
2023-03-28T18:26:06.829Z,4.97
2023-03-28T18:28:36.390Z,4.43
2023-03-28T18:31:28.304Z,5.07
2023-03-28T18:33:57.479Z,4.03
2023-03-28T18:36:25.120Z,3.87
2023-03-28T18:38:53.136Z,3.47
2023-03-28T18:41:20.242Z,4.37
2023-03-28T18:43:47.738Z,5.67
2023-03-28T18:46:16.167Z,2.90
2023-03-28T18:48:44.954Z,5.80
2023-03-28T18:51:12.166Z,3.60
2023-03-28T18:53:39.261Z,3.73
2023-03-28T18:56:08.547Z,5.33
2023-03-28T18:58:39.257Z,3.10
2023-03-28T19:03:41.829Z,7.73
2023-03-28T19:06:12.724Z,4.10
2023-03-28T19:08:40.449Z,2.63
2023-03-28T19:11:12.484Z,2.70
2023-03-28T19:13:41.183Z,6.77
2023-03-28T19:16:18.995Z,3.37
2023-03-28T19:18:47.425Z,3.73
2023-03-28T19:21:16.706Z,2.60
2023-03-28T19:23:44.240Z,2.83
2023-03-28T19:26:13.531Z,2.67
2023-03-28T19:28:42.337Z,3.50
2023-03-28T19:31:12.788Z,3.00
2023-03-28T19:33:43.399Z,4.03
2023-03-28T19:36:11.609Z,1.97
2023-03-28T19:38:39.940Z,3.83
2023-03-28T19:41:22.282Z,2.93
2023-03-28T19:43:51.199Z,2.10
2023-03-28T19:46:32.582Z,4.33
2023-03-28T19:49:05.651Z,3.93
2023-03-28T19:51:33.514Z,6.60
2023-03-28T19:54:01.066Z,4.17
2023-03-28T19:56:28.651Z,3.43
2023-03-28T19:58:56.019Z,5.37
2023-03-28T20:01:23.122Z,3.57
2023-03-28T20:03:53.277Z,2.30
2023-03-28T20:06:23.235Z,3.77
2023-03-28T20:08:50.939Z,3.67
2023-03-28T20:11:18.395Z,3.33
2023-03-28T20:13:45.539Z,3.07
2023-03-28T20:16:14.046Z,1.97
2023-03-28T20:18:41.717Z,3.07
2023-03-28T20:21:12.088Z,2.70
2023-03-28T20:23:40.157Z,3.97
2023-03-28T20:26:18.552Z,3.23
2023-03-28T20:28:52.170Z,1.93
2023-03-28T20:31:19.809Z,3.13
2023-03-28T20:33:47.134Z,3.73
2023-03-28T20:36:15.053Z,4.27
2023-03-28T20:38:42.132Z,3.47
2023-03-28T20:41:14.882Z,4.70
2023-03-28T20:43:50.305Z,3.13
2023-03-28T20:46:19.398Z,1.97
2023-03-28T20:48:56.960Z,3.17
2023-03-28T20:51:26.067Z,1.90
2023-03-28T20:53:59.802Z,2.30
2023-03-28T20:56:30.513Z,5.83
2023-03-28T20:58:59.062Z,3.80
2023-03-28T21:01:30.038Z,2.63
2023-03-28T21:03:59.945Z,4.03
2023-03-28T21:06:34.880Z,3.73
2023-03-28T21:09:13.391Z,7.07
2023-03-28T21:11:41.465Z,1.83
2023-03-28T21:14:12.541Z,2.17
2023-03-28T21:16:40.929Z,3.47
2023-03-28T21:19:09.043Z,6.03
2023-03-28T21:21:36.594Z,3.73
2023-03-28T21:24:04.850Z,3.67
2023-03-28T21:26:32.832Z,4.87
2023-03-28T21:29:00.164Z,3.17
2023-03-28T21:31:29.526Z,2.57
2023-03-28T21:33:58.968Z,5.10
2023-03-28T21:36:28.049Z,2.87
2023-03-28T21:38:56.477Z,3.73
2023-03-28T21:41:24.263Z,2.90
2023-03-28T21:43:53.817Z,4.37
2023-03-28T21:46:22.251Z,4.77
2023-03-28T21:48:49.994Z,4.33
2023-03-28T21:51:18.069Z,4.13
2023-03-28T21:53:46.223Z,4.40
2023-03-28T21:56:14.529Z,4.07
2023-03-28T21:58:42.208Z,3.63
2023-03-28T22:01:14.311Z,2.40
2023-03-28T22:03:41.773Z,6.67
2023-03-28T22:06:10.440Z,3.10
2023-03-28T22:08:38.806Z,5.73
2023-03-28T22:11:17.709Z,5.23
2023-03-28T22:13:47.508Z,3.07
2023-03-28T22:16:16.329Z,2.13
2023-03-28T22:18:50.062Z,5.47
2023-03-28T22:21:17.447Z,5.80
2023-03-28T22:23:47.507Z,3.97
2023-03-28T22:26:16.104Z,3.23
2023-03-28T22:28:43.411Z,5.63
2023-03-28T22:31:11.036Z,2.97
2023-03-28T22:33:38.227Z,6.40
2023-03-28T22:36:06.189Z,6.17
2023-03-28T22:38:33.354Z,3.30
2023-03-28T22:41:00.643Z,4.73
2023-03-28T22:43:29.844Z,5.90
2023-03-28T22:45:57.039Z,4.17
2023-03-28T22:48:24.137Z,3.90
2023-03-28T22:50:51.448Z,4.23
2023-03-28T22:53:22.715Z,3.90
2023-03-28T22:55:49.907Z,4.67
2023-03-28T22:58:17.702Z,3.80
2023-03-28T23:00:44.955Z,3.57
2023-03-28T23:03:12.319Z,2.93
2023-03-28T23:05:41.190Z,3.80
2023-03-28T23:08:10.044Z,3.97
2023-03-28T23:10:37.433Z,7.63
2023-03-28T23:13:04.821Z,3.80
2023-03-28T23:15:32.338Z,3.97
2023-03-28T23:17:59.448Z,4.13
2023-03-28T23:20:26.637Z,7.17
2023-03-28T23:22:53.829Z,5.47
2023-03-28T23:25:22.435Z,5.47
2023-03-28T23:27:49.665Z,3.83
2023-03-28T23:30:17.089Z,3.70
2023-03-28T23:32:44.287Z,6.00
2023-03-28T23:35:12.092Z,5.27
2023-03-28T23:37:40.143Z,4.20
2023-03-28T23:40:16.466Z,3.53
2023-03-28T23:42:44.768Z,6.83
2023-03-28T23:45:14.046Z,3.97
2023-03-28T23:47:41.944Z,4.77
2023-03-28T23:50:10.183Z,4.60
2023-03-28T23:52:37.356Z,7.00
2023-03-28T23:55:07.897Z,3.57
2023-03-28T23:57:35.923Z,7.23
